Munday, Texas
Current Conditions -  °F | °C
As of 8:36 AM on Monday 24 Nov 2014 (Local Time) from KF05 Reporting Station
Overcast Overcast  
Wind Chill: 36°   Ceiling: 12000
Heat Index: 39°   Visibility: 10mi
Dew Point: 30°   Wind: 5mph
Humidity: 70%   Direction: 240°WSW
Pressure: 30.06"   Gusts: NA
Location:  33.45°N, 99.62°W
Report Text: KF05 241436Z AUTO 24004KT 10SM SCT095 OVC120 04/M01 A3006 RMK AO2
Loading
Personal Weather Stations






























Interactive Weather Map New forecast layout! Learn more

10-Day Weather Forecast

Advertisements
Track Severe Weather on mobile